Time;durP1;ratioP1;P1;durP2;ratioP2;P2;SDS_P1;SDS_P2;PMS_P1;PMS_P2;Temp;Humidity;BMP_temperature;BMP_pressure;BME280_temperature;BME280_humidity;BME280_pressure;Samples;Min_cycle;Max_cycle;Signal;HPM_P1;HPM_P2
2021/05/26 00:00:30;;;;;;;3.60;2.40;;;10.40;89.60;;;;;;5034841;28;20022;-76
2021/05/26 00:02:56;;;;;;;2.58;2.22;;;10.30;89.50;;;;;;5016956;28;20022;-76
2021/05/26 00:05:21;;;;;;;3.30;2.58;;;10.40;89.60;;;;;;5024435;28;20519;-76
2021/05/26 00:07:47;;;;;;;2.33;1.88;;;10.40;89.60;;;;;;5035725;28;20034;-77
2021/05/26 00:10:13;;;;;;;2.97;2.20;;;10.40;89.50;;;;;;5016753;28;20026;-76
2021/05/26 00:12:39;;;;;;;3.15;2.50;;;10.40;89.40;;;;;;5036366;28;20044;-76
2021/05/26 00:15:06;;;;;;;2.40;1.65;;;10.50;89.40;;;;;;5030518;28;20021;-75
2021/05/26 00:17:31;;;;;;;2.85;1.67;;;10.50;89.30;;;;;;5054032;28;20024;-76
2021/05/26 00:19:58;;;;;;;3.67;1.98;;;10.60;89.10;;;;;;5051444;28;20127;-76
2021/05/26 00:22:24;;;;;;;2.97;1.63;;;10.60;89.00;;;;;;5038779;28;20025;-75
2021/05/26 00:24:50;;;;;;;1.63;1.52;;;10.60;88.80;;;;;;5034044;28;20482;-76
2021/05/26 00:27:15;;;;;;;1.90;1.30;;;10.70;88.70;;;;;;5032988;28;20045;-75
2021/05/26 00:29:42;;;;;;;2.17;1.40;;;10.60;88.70;;;;;;5016225;28;20036;-76
2021/05/26 00:32:07;;;;;;;2.75;1.70;;;10.70;88.70;;;;;;5048579;28;20021;-76
2021/05/26 00:34:33;;;;;;;1.60;1.40;;;10.70;88.70;;;;;;5048150;28;20052;-77
2021/05/26 00:36:58;;;;;;;1.30;1.20;;;10.70;88.60;;;;;;5050246;28;20057;-78
2021/05/26 00:39:24;;;;;;;1.40;1.25;;;10.60;88.50;;;;;;5053492;28;20449;-77
2021/05/26 00:41:49;;;;;;;1.50;1.40;;;10.60;88.70;;;;;;5016030;28;20025;-77
2021/05/26 00:44:16;;;;;;;1.20;1.10;;;10.50;88.70;;;;;;5033688;28;20042;-76
2021/05/26 00:46:45;;;;;;;0.93;0.88;;;10.50;88.70;;;;;;5033764;28;20579;-77
2021/05/26 00:49:14;;;;;;;1.45;0.93;;;10.50;88.70;;;;;;5033261;28;20101;-76
2021/05/26 00:51:40;;;;;;;0.93;0.80;;;10.40;88.80;;;;;;5033833;28;20029;-76
2021/05/26 00:54:06;;;;;;;1.30;1.00;;;10.30;88.90;;;;;;5019022;28;20408;-78
2021/05/26 00:56:36;;;;;;;0.70;0.70;;;10.20;88.90;;;;;;5042333;28;20033;-77
2021/05/26 00:59:05;;;;;;;0.50;0.50;;;10.20;89.00;;;;;;5033796;28;20064;-76
2021/05/26 01:01:31;;;;;;;;;;;10.10;89.00;;;;;;5044284;28;20017;-77
2021/05/26 01:03:57;;;;;;;0.63;0.63;;;10.10;89.10;;;;;;5041423;28;19967;-76
2021/05/26 01:06:23;;;;;;;0.70;0.70;;;10.10;89.10;;;;;;5050438;28;20465;-78
2021/05/26 01:08:49;;;;;;;0.55;0.55;;;10.10;88.90;;;;;;5050761;28;20036;-77
2021/05/26 01:11:15;;;;;;;1.27;1.10;;;10.10;88.80;;;;;;5051768;28;20070;-77
2021/05/26 01:13:41;;;;;;;1.48;1.02;;;10.10;88.70;;;;;;5033754;28;20050;-77
2021/05/26 01:16:06;;;;;;;0.75;0.75;;;10.10;88.60;;;;;;5023757;28;20013;-76
2021/05/26 01:18:34;;;;;;;1.70;0.80;;;10.10;88.70;;;;;;5050949;28;20206;-76
2021/05/26 01:21:03;;;;;;;1.98;1.00;;;10.10;88.80;;;;;;5053293;28;20106;-76
2021/05/26 01:23:29;;;;;;;0.70;0.60;;;10.00;88.90;;;;;;5053271;28;20028;-75
2021/05/26 01:25:56;;;;;;;0.60;0.60;;;10.00;89.00;;;;;;5050942;28;20049;-76
2021/05/26 01:28:23;;;;;;;0.52;0.52;;;10.00;88.90;;;;;;5052826;28;20031;-76
2021/05/26 01:30:49;;;;;;;0.40;0.32;;;10.10;88.90;;;;;;5031356;28;20033;-77
2021/05/26 01:33:15;;;;;;;0.80;0.80;;;10.10;88.70;;;;;;5032646;28;20025;-77
2021/05/26 01:35:42;;;;;;;0.70;0.70;;;10.10;88.70;;;;;;5024457;28;20060;-79
2021/05/26 01:38:14;;;;;;;0.70;0.70;;;10.00;88.80;;;;;;5052364;28;20082;-78
2021/05/26 01:40:40;;;;;;;0.82;0.80;;;9.90;89.10;;;;;;5034086;28;20029;-78
2021/05/26 01:43:06;;;;;;;0.77;0.77;;;9.80;89.40;;;;;;5033008;28;20486;-78
2021/05/26 01:45:31;;;;;;;1.08;0.90;;;9.70;89.50;;;;;;5032950;28;20068;-79
2021/05/26 01:47:57;;;;;;;0.47;0.47;;;9.70;89.80;;;;;;5045286;28;20027;-81
2021/05/26 01:50:22;;;;;;;0.60;0.60;;;9.60;90.00;;;;;;5053042;28;20079;-81
2021/05/26 01:52:52;;;;;;;0.75;0.75;;;9.50;90.10;;;;;;5053022;28;20385;-80
2021/05/26 01:55:18;;;;;;;0.70;0.45;;;9.50;90.10;;;;;;5048072;28;20032;-80
2021/05/26 01:57:45;;;;;;;0.70;0.70;;;9.50;90.10;;;;;;5047408;28;20028;-80
2021/05/26 02:00:16;;;;;;;0.60;0.60;;;9.50;90.10;;;;;;5034131;28;20039;-79
2021/05/26 02:02:45;;;;;;;0.60;0.57;;;9.50;90.10;;;;;;5052454;28;20021;-79
2021/05/26 02:05:12;;;;;;;0.90;0.77;;;9.50;90.10;;;;;;5045357;28;20038;-78
2021/05/26 02:07:38;;;;;;;0.65;0.47;;;9.50;90.10;;;;;;5015125;28;20028;-79
2021/05/26 02:10:07;;;;;;;0.50;0.50;;;9.50;90.10;;;;;;5032818;28;20041;-79
2021/05/26 02:12:33;;;;;;;0.70;0.57;;;9.50;90.10;;;;;;5033391;28;20430;-78
2021/05/26 02:15:00;;;;;;;0.73;0.38;;;9.50;90.10;;;;;;5043385;28;20033;-79
2021/05/26 02:17:26;;;;;;;0.47;0.47;;;9.50;90.10;;;;;;5032810;28;20055;-79
2021/05/26 02:19:51;;;;;;;0.70;0.70;;;9.50;90.10;;;;;;5041585;28;20040;-78
2021/05/26 02:22:18;;;;;;;0.63;0.63;;;9.50;90.10;;;;;;5052334;28;20492;-79
2021/05/26 02:24:45;;;;;;;0.47;0.47;;;9.50;90.10;;;;;;5052306;28;20444;-78
2021/05/26 02:27:11;;;;;;;0.85;0.70;;;9.50;90.10;;;;;;5034273;28;20064;-76
2021/05/26 02:29:37;;;;;;;0.30;0.30;;;9.50;90.10;;;;;;5051843;28;20052;-77
2021/05/26 02:32:04;;;;;;;0.85;0.60;;;9.50;90.10;;;;;;5052476;28;20098;-77
2021/05/26 02:34:30;;;;;;;0.50;0.50;;;9.50;90.10;;;;;;5034674;28;20048;-78
2021/05/26 02:36:55;;;;;;;0.47;0.45;;;9.50;90.10;;;;;;5035037;28;20029;-78
2021/05/26 02:39:21;;;;;;;1.95;0.90;;;9.50;90.10;;;;;;5032532;28;20108;-78
2021/05/26 02:41:47;;;;;;;0.85;0.63;;;9.50;90.10;;;;;;5014831;28;20068;-78
2021/05/26 02:44:13;;;;;;;0.60;0.60;;;9.60;90.10;;;;;;5031997;28;20049;-77
2021/05/26 02:46:38;;;;;;;0.57;0.57;;;9.60;90.00;;;;;;5033500;28;20104;-78
2021/05/26 02:49:05;;;;;;;0.77;0.70;;;9.70;90.00;;;;;;5032549;28;20382;-78
2021/05/26 02:51:31;;;;;;;0.82;0.80;;;9.70;89.80;;;;;;5041098;28;20370;-80
2021/05/26 02:53:57;;;;;;;0.73;0.70;;;9.80;89.80;;;;;;5055862;28;20021;-80
2021/05/26 02:56:23;;;;;;;0.38;0.38;;;9.80;89.80;;;;;;5046581;28;20090;-80
2021/05/26 02:58:48;;;;;;;0.70;0.70;;;9.80;89.90;;;;;;5035387;28;20013;-80
2021/05/26 03:01:14;;;;;;;0.68;0.63;;;9.80;89.90;;;;;;5043316;28;20362;-81
2021/05/26 03:03:39;;;;;;;0.60;0.60;;;9.80;89.80;;;;;;5055330;28;20454;-80
2021/05/26 03:06:05;;;;;;;0.68;0.68;;;9.80;89.90;;;;;;5055578;28;20021;-80
2021/05/26 03:08:30;;;;;;;0.60;0.60;;;9.70;90.00;;;;;;5041295;28;20022;-79
2021/05/26 03:10:58;;;;;;;0.90;0.90;;;9.70;90.10;;;;;;5049048;28;20478;-79
2021/05/26 03:13:24;;;;;;;0.73;0.73;;;9.70;90.20;;;;;;5034011;28;20483;-78
2021/05/26 03:15:51;;;;;;;0.57;0.57;;;9.60;90.20;;;;;;5017621;28;20124;-79
2021/05/26 03:18:17;;;;;;;0.70;0.70;;;9.50;90.20;;;;;;5036754;28;20069;-79
2021/05/26 03:20:42;;;;;;;0.73;0.70;;;9.50;90.30;;;;;;5037163;28;20032;-79
2021/05/26 03:23:08;;;;;;;1.05;1.00;;;9.50;90.40;;;;;;5055310;28;20025;-79
2021/05/26 03:25:34;;;;;;;0.75;0.73;;;9.50;90.30;;;;;;5036193;28;20081;-79
2021/05/26 03:27:59;;;;;;;1.10;1.00;;;9.60;90.30;;;;;;5050237;28;20461;-80
2021/05/26 03:30:25;;;;;;;2.17;0.90;;;9.60;90.30;;;;;;5036947;28;20473;-80
2021/05/26 03:32:50;;;;;;;1.20;1.10;;;9.70;90.20;;;;;;5055081;28;20064;-79
2021/05/26 03:35:16;;;;;;;1.15;1.05;;;9.80;90.10;;;;;;5055049;28;20043;-80
2021/05/26 03:37:43;;;;;;;1.20;1.00;;;9.80;90.20;;;;;;5055096;28;20025;-80
2021/05/26 03:40:13;;;;;;;0.73;0.70;;;9.80;90.20;;;;;;5048760;28;20048;-79
2021/05/26 03:42:39;;;;;;;1.27;1.10;;;9.80;90.10;;;;;;5016821;28;20068;-79
2021/05/26 03:45:07;;;;;;;1.42;1.15;;;9.80;90.10;;;;;;5033762;28;20035;-78
2021/05/26 03:47:36;;;;;;;1.48;1.02;;;9.80;90.10;;;;;;5037434;28;20029;-78
2021/05/26 03:50:04;;;;;;;2.65;1.83;;;9.80;90.10;;;;;;5034934;28;20067;-78
2021/05/26 03:52:29;;;;;;;2.33;2.00;;;9.80;90.10;;;;;;5018084;28;20021;-78
2021/05/26 03:54:55;;;;;;;1.50;1.40;;;9.80;90.20;;;;;;5049390;28;20025;-79
2021/05/26 03:57:21;;;;;;;4.70;2.15;;;9.80;90.20;;;;;;5046763;28;20546;-79
2021/05/26 03:59:46;;;;;;;1.70;1.35;;;9.90;90.30;;;;;;5034657;28;20040;-79
2021/05/26 04:02:12;;;;;;;1.83;1.45;;;9.90;90.30;;;;;;5016550;28;20429;-79
2021/05/26 04:04:39;;;;;;;2.63;2.17;;;9.90;90.30;;;;;;5034447;28;20128;-79
2021/05/26 04:07:05;;;;;;;1.88;1.67;;;9.90;90.30;;;;;;5034209;28;20462;-79
2021/05/26 04:09:31;;;;;;;3.75;2.50;;;10.00;90.30;;;;;;5034678;28;20029;-79
2021/05/26 04:11:57;;;;;;;2.78;2.15;;;10.00;90.30;;;;;;5016275;28;20021;-78
2021/05/26 04:14:22;;;;;;;2.72;2.20;;;10.00;90.20;;;;;;5034483;28;20040;-78
2021/05/26 04:16:48;;;;;;;2.13;1.73;;;10.10;90.20;;;;;;5034514;28;20120;-79
2021/05/26 04:19:13;;;;;;;3.05;2.10;;;10.10;90.30;;;;;;5034361;28;20045;-79
2021/05/26 04:21:39;;;;;;;2.85;2.42;;;10.20;90.30;;;;;;5034274;28;20053;-78
2021/05/26 04:24:05;;;;;;;1.95;1.75;;;10.20;90.30;;;;;;5034240;28;20034;-79
2021/05/26 04:26:30;;;;;;;2.97;2.03;;;10.10;90.30;;;;;;5033572;28;20121;-79
2021/05/26 04:28:56;;;;;;;3.45;2.00;;;10.20;90.30;;;;;;5034120;28;20049;-79
2021/05/26 04:31:22;;;;;;;3.92;1.90;;;10.10;90.30;;;;;;5034076;28;20072;-79
2021/05/26 04:33:47;;;;;;;2.63;2.10;;;10.20;90.40;;;;;;5034013;28;20018;-78
2021/05/26 04:36:13;;;;;;;3.53;2.25;;;10.20;90.40;;;;;;5016406;28;20075;-78
2021/05/26 04:38:38;;;;;;;1.88;1.55;;;10.20;90.40;;;;;;5033907;28;20017;-78
2021/05/26 04:41:05;;;;;;;3.38;2.20;;;10.30;90.40;;;;;;5033601;28;20433;-77
2021/05/26 04:43:31;;;;;;;3.03;1.95;;;10.30;90.40;;;;;;5033857;28;20013;-77
2021/05/26 04:45:57;;;;;;;2.80;2.30;;;10.30;90.40;;;;;;5033881;28;20385;-79
2021/05/26 04:48:23;;;;;;;3.45;2.30;;;10.30;90.40;;;;;;5033878;28;20021;-78
2021/05/26 04:50:48;;;;;;;4.28;2.58;;;10.30;90.40;;;;;;5016020;28;20025;-78
2021/05/26 04:53:14;;;;;;;3.45;1.90;;;10.30;90.40;;;;;;5016029;28;20478;-77
2021/05/26 04:55:40;;;;;;;2.50;2.08;;;10.30;90.40;;;;;;5033055;28;20514;-78
2021/05/26 04:58:07;;;;;;;4.40;1.88;;;10.30;90.40;;;;;;5033646;28;20160;-79
2021/05/26 05:00:33;;;;;;;2.42;1.95;;;10.30;90.40;;;;;;5033533;28;20112;-76
2021/05/26 05:02:59;;;;;;;3.15;1.63;;;10.30;90.40;;;;;;5033557;28;20028;-78
2021/05/26 05:05:31;;;;;;;7.95;2.38;;;10.30;90.40;;;;;;5033430;28;20030;-77
2021/05/26 05:07:57;;;;;;;2.22;1.90;;;10.30;90.40;;;;;;5033433;28;20094;-77
2021/05/26 05:10:22;;;;;;;2.33;1.58;;;10.20;90.50;;;;;;5037180;28;20052;-76
2021/05/26 05:12:48;;;;;;;3.30;1.70;;;10.20;90.50;;;;;;5050005;28;20025;-77
2021/05/26 05:15:13;;;;;;;1.35;1.20;;;10.20;90.50;;;;;;5053444;28;20525;-76
2021/05/26 05:17:39;;;;;;;3.17;1.80;;;10.20;90.60;;;;;;5052830;28;20017;-77
2021/05/26 05:20:05;;;;;;;2.88;1.60;;;10.20;90.60;;;;;;5053186;28;20101;-78
2021/05/26 05:22:30;;;;;;;2.30;1.48;;;10.20;90.50;;;;;;5053253;28;20466;-77
2021/05/26 05:24:56;;;;;;;2.13;1.60;;;10.20;90.50;;;;;;5034731;28;20078;-75
2021/05/26 05:27:22;;;;;;;2.63;2.10;;;10.20;90.50;;;;;;5052742;28;20416;-76
2021/05/26 05:29:47;;;;;;;2.55;1.45;;;10.20;90.50;;;;;;5053086;28;20025;-76
2021/05/26 05:32:13;;;;;;;2.03;1.55;;;10.20;90.50;;;;;;5051254;28;20028;-76
2021/05/26 05:34:38;;;;;;;1.75;1.30;;;10.40;90.50;;;;;;5033200;28;20382;-77
2021/05/26 05:37:04;;;;;;;1.50;1.35;;;10.50;90.30;;;;;;5033097;28;20075;-75
2021/05/26 05:39:29;;;;;;;1.38;1.25;;;10.50;90.20;;;;;;5031368;28;20025;-76
2021/05/26 05:41:55;;;;;;;1.92;1.40;;;10.60;90.20;;;;;;5033426;28;20493;-75
2021/05/26 05:44:20;;;;;;;1.33;1.23;;;10.60;90.20;;;;;;5052916;28;20029;-76
2021/05/26 05:46:46;;;;;;;1.70;1.50;;;10.60;90.20;;;;;;5053008;28;20042;-77
2021/05/26 05:49:11;;;;;;;2.33;1.65;;;10.60;90.20;;;;;;5052836;28;20480;-77
2021/05/26 05:51:37;;;;;;;2.75;1.98;;;10.60;90.20;;;;;;5052833;28;20186;-77
2021/05/26 05:54:03;;;;;;;2.88;2.05;;;10.50;90.30;;;;;;5052431;28;20104;-78
2021/05/26 05:56:28;;;;;;;2.10;1.60;;;10.60;90.30;;;;;;5051002;28;20071;-78
2021/05/26 05:58:54;;;;;;;2.08;1.42;;;10.60;90.30;;;;;;5052908;28;20469;-77
2021/05/26 06:01:19;;;;;;;1.48;1.35;;;10.60;90.30;;;;;;5052886;28;20017;-79
2021/05/26 06:03:45;;;;;;;2.28;1.48;;;10.60;90.30;;;;;;5019291;28;20021;-76
2021/05/26 06:06:10;;;;;;;2.75;1.80;;;10.60;90.30;;;;;;5015044;28;20030;-78
2021/05/26 06:08:36;;;;;;;1.83;1.45;;;10.60;90.30;;;;;;5032576;28;20021;-75
2021/05/26 06:11:02;;;;;;;1.85;1.55;;;10.60;90.30;;;;;;5031368;28;20026;-77
2021/05/26 06:13:28;;;;;;;2.20;1.73;;;10.60;90.30;;;;;;5028790;28;20518;-76
2021/05/26 06:15:54;;;;;;;2.40;1.90;;;10.60;90.30;;;;;;5052549;28;20029;-76
2021/05/26 06:18:20;;;;;;;3.28;2.15;;;10.60;90.30;;;;;;5052633;28;20021;-79
2021/05/26 06:20:46;;;;;;;2.78;2.10;;;10.60;90.30;;;;;;5050906;28;20346;-80
2021/05/26 06:23:11;;;;;;;2.05;1.60;;;10.60;90.30;;;;;;5033106;28;20028;-80
2021/05/26 06:25:38;;;;;;;2.28;1.75;;;10.70;90.30;;;;;;5055448;28;20057;-79
2021/05/26 06:28:04;;;;;;;3.45;1.77;;;10.70;90.30;;;;;;5049436;28;20018;-78
2021/05/26 06:30:30;;;;;;;3.25;1.70;;;10.60;90.30;;;;;;5036418;28;20033;-80
2021/05/26 06:32:55;;;;;;;4.47;1.70;;;10.60;90.30;;;;;;5040288;28;20076;-80
2021/05/26 06:35:21;;;;;;;1.30;1.20;;;10.60;90.30;;;;;;5036261;28;20026;-78
2021/05/26 06:37:46;;;;;;;1.83;1.50;;;10.60;90.30;;;;;;5035712;28;20031;-77
2021/05/26 06:40:12;;;;;;;4.93;2.70;;;10.70;90.30;;;;;;5036714;28;20028;-78
2021/05/26 06:42:38;;;;;;;2.85;1.88;;;10.70;90.20;;;;;;5054799;28;20025;-77
2021/05/26 06:45:04;;;;;;;2.08;1.75;;;10.70;90.30;;;;;;5055964;28;20029;-78
2021/05/26 06:47:30;;;;;;;2.38;2.17;;;10.70;90.30;;;;;;5052708;28;20405;-77
2021/05/26 06:49:55;;;;;;;3.50;2.03;;;10.70;90.30;;;;;;5028573;28;20025;-78
2021/05/26 06:52:21;;;;;;;3.53;1.77;;;10.80;90.20;;;;;;5038160;28;20018;-77
2021/05/26 06:54:47;;;;;;;3.20;1.75;;;10.80;90.20;;;;;;5031382;28;20484;-78
2021/05/26 06:57:12;;;;;;;3.13;2.22;;;10.90;90.20;;;;;;5050258;28;20026;-78
2021/05/26 06:59:38;;;;;;;1.92;1.40;;;11.00;90.10;;;;;;5040620;28;20367;-77
2021/05/26 07:02:03;;;;;;;1.90;1.65;;;11.10;90.10;;;;;;5046165;28;20033;-77
2021/05/26 07:04:29;;;;;;;3.03;2.00;;;11.30;90.00;;;;;;5049753;28;20033;-76
2021/05/26 07:06:57;;;;;;;5.57;2.92;;;11.40;89.70;;;;;;5036999;28;20021;-77
2021/05/26 07:09:23;;;;;;;3.60;2.97;;;11.40;89.70;;;;;;5055338;28;20057;-77
2021/05/26 07:11:49;;;;;;;3.60;2.50;;;11.30;90.10;;;;;;5055286;28;20094;-78
2021/05/26 07:14:14;;;;;;;3.40;2.00;;;11.40;89.80;;;;;;5035418;28;20025;-77
2021/05/26 07:16:40;;;;;;;3.40;2.17;;;11.50;89.80;;;;;;5054852;28;20021;-76
2021/05/26 07:19:07;;;;;;;4.35;2.42;;;11.50;89.70;;;;;;5041913;28;20021;-76
2021/05/26 07:21:33;;;;;;;2.70;2.08;;;11.60;89.70;;;;;;5036891;28;20082;-75
2021/05/26 07:23:58;;;;;;;3.17;1.95;;;11.80;89.60;;;;;;5054899;28;20025;-75
2021/05/26 07:26:24;;;;;;;2.95;1.90;;;11.90;89.10;;;;;;5055062;28;20053;-75
2021/05/26 07:28:50;;;;;;;4.57;2.08;;;12.00;89.00;;;;;;5037084;28;20021;-76
2021/05/26 07:31:16;;;;;;;1.65;1.40;;;12.10;89.10;;;;;;5055050;28;20385;-79
2021/05/26 07:33:41;;;;;;;3.08;1.80;;;12.30;88.90;;;;;;5054862;28;20029;-76
2021/05/26 07:36:07;;;;;;;3.58;2.08;;;12.30;88.90;;;;;;5034067;28;20025;-77
2021/05/26 07:38:33;;;;;;;3.58;2.00;;;12.30;88.70;;;;;;5054757;28;20078;-76
2021/05/26 07:40:59;;;;;;;3.70;1.88;;;12.30;88.80;;;;;;5036940;28;20044;-75
2021/05/26 07:43:25;;;;;;;3.42;3.00;;;12.30;88.90;;;;;;5054870;28;20083;-75
2021/05/26 07:45:50;;;;;;;3.08;2.30;;;12.40;88.80;;;;;;5054678;28;20060;-77
2021/05/26 07:48:16;;;;;;;3.47;2.28;;;12.40;88.80;;;;;;5054811;28;20099;-75
2021/05/26 07:50:43;;;;;;;4.47;2.70;;;12.20;89.10;;;;;;5052011;28;20553;-76
2021/05/26 07:53:09;;;;;;;3.30;2.30;;;12.20;89.70;;;;;;5054631;28;20025;-76
2021/05/26 07:55:34;;;;;;;2.72;1.70;;;12.40;89.60;;;;;;5030701;28;20029;-76
2021/05/26 07:58:00;;;;;;;2.45;1.65;;;12.60;88.70;;;;;;5034817;28;20030;-76
2021/05/26 08:00:26;;;;;;;3.15;2.45;;;12.70;88.50;;;;;;5035759;28;20022;-76
2021/05/26 08:02:53;;;;;;;2.85;2.10;;;12.80;88.10;;;;;;5038192;28;20482;-75
2021/05/26 08:05:19;;;;;;;3.40;1.90;;;12.80;88.30;;;;;;5054391;28;20033;-76
2021/05/26 08:07:44;;;;;;;3.70;2.63;;;12.80;88.50;;;;;;5054498;28;20056;-75
2021/05/26 08:10:12;;;;;;;3.88;2.33;;;12.80;88.20;;;;;;5054432;28;20507;-76
2021/05/26 08:12:38;;;;;;;2.72;1.80;;;12.80;88.40;;;;;;5054473;28;20366;-76
2021/05/26 08:15:04;;;;;;;4.15;3.17;;;12.90;88.40;;;;;;5054288;28;20027;-76
2021/05/26 08:17:30;;;;;;;6.03;2.53;;;13.00;88.30;;;;;;5053731;28;20057;-79
2021/05/26 08:19:55;;;;;;;3.55;2.50;;;13.00;88.10;;;;;;5054221;28;20045;-77
2021/05/26 08:22:21;;;;;;;3.88;3.15;;;12.90;88.10;;;;;;5036149;28;20097;-77
2021/05/26 08:24:46;;;;;;;3.47;2.60;;;12.90;88.20;;;;;;5054057;28;20057;-76
2021/05/26 08:27:12;;;;;;;4.18;2.65;;;12.90;88.30;;;;;;5053950;28;20041;-75
2021/05/26 08:29:37;;;;;;;2.08;1.85;;;12.90;88.20;;;;;;5054126;28;20525;-76
2021/05/26 08:32:03;;;;;;;3.65;2.65;;;12.90;89.00;;;;;;5033146;28;20377;-75
2021/05/26 08:34:29;;;;;;;3.10;2.05;;;12.80;88.40;;;;;;5043679;28;20504;-75
2021/05/26 08:36:57;;;;;;;3.95;2.40;;;12.80;88.50;;;;;;5036132;28;20021;-75
2021/05/26 08:39:22;;;;;;;5.13;2.85;;;13.00;88.40;;;;;;5053892;28;20029;-76
2021/05/26 08:41:52;;;;;;;4.15;2.97;;;13.10;88.10;;;;;;5053539;28;20096;-76
2021/05/26 08:44:18;;;;;;;4.82;3.70;;;13.10;88.50;;;;;;5053718;28;20478;-76
2021/05/26 08:46:44;;;;;;;3.83;2.95;;;13.20;87.80;;;;;;5053138;28;20024;-76
2021/05/26 08:49:10;;;;;;;4.00;2.95;;;13.30;87.70;;;;;;5053069;28;20110;-76
2021/05/26 08:51:36;;;;;;;3.63;2.63;;;13.30;87.60;;;;;;5053599;28;20024;-75
2021/05/26 08:54:03;;;;;;;2.38;2.03;;;13.20;87.70;;;;;;5022103;28;20497;-75
2021/05/26 08:56:28;;;;;;;3.92;2.90;;;13.20;87.80;;;;;;5016026;28;20104;-76
2021/05/26 08:58:55;;;;;;;3.92;2.88;;;13.20;88.00;;;;;;5033660;28;20478;-75
2021/05/26 09:01:21;;;;;;;3.97;2.30;;;13.20;88.10;;;;;;5048355;28;20615;-76
2021/05/26 09:03:50;;;;;;;3.22;2.70;;;13.40;87.80;;;;;;5051614;28;20033;-76
2021/05/26 09:06:16;;;;;;;5.03;3.40;;;13.60;87.50;;;;;;5035392;28;20033;-77
2021/05/26 09:08:49;;;;;;;3.28;2.33;;;13.70;87.90;;;;;;5053428;28;20386;-78
2021/05/26 09:11:28;;;;;;;4.30;3.67;;;13.80;87.10;;;;;;5053586;28;20060;-75
2021/05/26 09:13:53;;;;;;;4.75;3.33;;;13.80;87.00;;;;;;5053169;28;20033;-76
2021/05/26 09:16:25;;;;;;;3.08;2.55;;;14.00;87.20;;;;;;5052760;28;20024;-76
2021/05/26 09:18:58;;;;;;;4.10;3.60;;;14.10;87.10;;;;;;5053335;28;20087;-76
2021/05/26 09:21:43;;;;;;;4.68;3.22;;;14.30;86.40;;;;;;5053299;28;20025;-75
2021/05/26 09:24:21;;;;;;;3.85;2.85;;;14.40;86.40;;;;;;5019284;28;20038;-75
2021/05/26 09:26:51;;;;;;;4.97;2.90;;;14.70;86.10;;;;;;5032927;28;20450;-76
2021/05/26 09:29:26;;;;;;;4.05;3.38;;;14.80;85.90;;;;;;5033117;28;20072;-77
2021/05/26 09:32:08;;;;;;;3.55;2.80;;;14.80;85.50;;;;;;5032861;28;20029;-76
2021/05/26 09:34:36;;;;;;;3.50;2.63;;;14.70;85.60;;;;;;5033137;28;20057;-77
2021/05/26 09:37:04;;;;;;;2.55;2.35;;;14.50;86.00;;;;;;5033215;28;20527;-76
2021/05/26 09:39:53;;;;;;;4.80;3.55;;;14.50;86.30;;;;;;5015652;28;20365;-76
2021/05/26 09:42:21;;;;;;;4.07;2.83;;;14.30;86.20;;;;;;5043919;28;20022;-76
2021/05/26 09:45:09;;;;;;;3.03;2.47;;;14.20;86.80;;;;;;5052295;28;20039;-76
2021/05/26 09:47:46;;;;;;;3.13;2.63;;;14.50;86.90;;;;;;5034550;28;20121;-75
2021/05/26 09:50:19;;;;;;;3.08;2.13;;;14.70;85.90;;;;;;5032999;28;20470;-75
2021/05/26 09:53:03;;;;;;;2.35;2.15;;;15.00;85.40;;;;;;5032881;28;20053;-75
2021/05/26 09:55:35;;;;;;;3.05;2.45;;;15.00;85.30;;;;;;5045170;28;20026;-76
2021/05/26 09:58:01;;;;;;;4.38;2.95;;;15.00;85.40;;;;;;5052639;28;20022;-76
2021/05/26 10:00:28;;;;;;;2.53;1.85;;;15.20;84.90;;;;;;5053321;28;20047;-75
2021/05/26 10:02:54;;;;;;;3.00;1.95;;;15.10;85.00;;;;;;5019077;28;20017;-77
2021/05/26 10:05:21;;;;;;;4.57;2.67;;;15.10;84.90;;;;;;5036782;28;20039;-76
2021/05/26 10:07:51;;;;;;;1.90;1.80;;;15.00;85.00;;;;;;5036662;28;20496;-74
2021/05/26 10:10:18;;;;;;;2.88;2.20;;;15.00;85.10;;;;;;5036727;28;20026;-77
2021/05/26 10:12:46;;;;;;;3.45;2.00;;;15.30;85.00;;;;;;5036688;28;20540;-76
2021/05/26 10:15:12;;;;;;;3.88;2.47;;;15.50;84.50;;;;;;5019725;28;20026;-76
2021/05/26 10:17:41;;;;;;;2.80;2.05;;;15.60;84.20;;;;;;5036549;28;20022;-76
2021/05/26 10:20:14;;;;;;;3.30;1.90;;;15.60;84.20;;;;;;5041364;28;20028;-76
2021/05/26 10:22:40;;;;;;;1.60;1.45;;;15.50;84.00;;;;;;5047814;28;20024;-77
2021/05/26 10:25:07;;;;;;;1.95;1.40;;;15.00;84.40;;;;;;5049656;28;20064;-76
2021/05/26 10:27:32;;;;;;;1.08;0.98;;;14.20;85.50;;;;;;5056253;28;20165;-76
2021/05/26 10:29:59;;;;;;;1.20;1.10;;;13.70;86.30;;;;;;5036902;28;20163;-77
2021/05/26 10:32:28;;;;;;;1.75;1.40;;;13.20;87.00;;;;;;5054398;28;20044;-80
2021/05/26 10:34:53;;;;;;;1.17;0.90;;;12.80;87.40;;;;;;5043788;28;20036;-79
2021/05/26 10:37:29;;;;;;;2.20;0.98;;;12.40;87.90;;;;;;5053138;28;20288;-77
2021/05/26 10:39:55;;;;;;;0.88;0.88;;;11.90;88.80;;;;;;5033702;28;20375;-79
2021/05/26 10:42:32;;;;;;;0.93;0.93;;;11.40;89.50;;;;;;5037538;28;20032;-78
2021/05/26 10:45:09;;;;;;;1.60;1.13;;;11.10;89.80;;;;;;5036238;28;20113;-81
2021/05/26 10:47:38;;;;;;;0.95;0.93;;;10.80;90.10;;;;;;5038740;28;20143;-84
2021/05/26 10:50:23;;;;;;;1.30;1.20;;;10.50;90.30;;;;;;5054344;28;20056;-82
2021/05/26 10:52:58;;;;;;;2.90;1.10;;;10.40;90.30;;;;;;5038335;28;20033;-80
2021/05/26 10:55:37;;;;;;;0.80;0.80;;;10.20;90.30;;;;;;5033710;28;20033;-80
2021/05/26 10:58:25;;;;;;;;;;;10.20;90.20;;;;;;5059232;28;20107;-80
2021/05/26 11:01:03;;;;;;;1.15;1.00;;;10.20;90.10;;;;;;5034934;28;19915;-80
2021/05/26 11:03:42;;;;;;;0.88;0.88;;;10.20;90.10;;;;;;5037034;28;20120;-80
2021/05/26 11:06:10;;;;;;;0.90;0.90;;;10.20;90.30;;;;;;5037757;28;20065;-81
2021/05/26 11:08:41;;;;;;;0.90;0.90;;;10.10;90.00;;;;;;5055277;28;20115;-82
2021/05/26 11:11:24;;;;;;;0.90;0.90;;;10.20;90.00;;;;;;5035779;28;20049;-81
2021/05/26 11:14:05;;;;;;;0.70;0.70;;;10.40;90.00;;;;;;5055617;28;20032;-80
2021/05/26 11:16:40;;;;;;;0.90;0.90;;;10.70;89.70;;;;;;5055598;28;20029;-81
2021/05/26 11:19:11;;;;;;;1.48;0.88;;;11.00;89.20;;;;;;5037637;28;20021;-82
2021/05/26 11:21:42;;;;;;;0.73;0.73;;;11.30;88.90;;;;;;5055578;28;20032;-79
2021/05/26 11:24:08;;;;;;;1.58;0.50;;;11.40;88.50;;;;;;5055419;28;20024;-82
2021/05/26 11:26:35;;;;;;;0.55;0.55;;;11.50;88.60;;;;;;5054738;28;20080;-80
2021/05/26 11:29:02;;;;;;;0.50;0.50;;;11.50;88.90;;;;;;5055183;28;20025;-80
2021/05/26 11:31:28;;;;;;;0.55;0.45;;;11.70;89.10;;;;;;5032725;28;20017;-81
2021/05/26 11:33:55;;;;;;;0.50;0.50;;;11.90;89.00;;;;;;5035223;28;20032;-81
2021/05/26 11:36:45;;;;;;;0.75;0.75;;;11.90;88.90;;;;;;5017714;28;20044;-74
2021/05/26 11:39:18;;;;;;;0.57;0.57;;;12.00;88.80;;;;;;5035351;28;20060;-76
2021/05/26 11:41:44;;;;;;;0.57;0.57;;;12.00;88.90;;;;;;5035189;28;20507;-79
2021/05/26 11:44:10;;;;;;;0.73;0.73;;;12.00;88.90;;;;;;5035036;28;20096;-76
2021/05/26 11:46:36;;;;;;;0.70;0.70;;;11.90;89.10;;;;;;5037091;28;20045;-76
2021/05/26 11:49:12;;;;;;;1.40;0.90;;;11.80;89.40;;;;;;5049231;28;20469;-78
2021/05/26 11:51:39;;;;;;;1.10;0.98;;;11.80;89.70;;;;;;5054853;28;20033;-79
2021/05/26 11:54:05;;;;;;;1.33;0.65;;;11.90;89.60;;;;;;5036884;28;20369;-79
2021/05/26 11:56:34;;;;;;;0.93;0.93;;;11.90;89.50;;;;;;5054098;28;20021;-79
2021/05/26 11:59:00;;;;;;;1.73;0.97;;;11.90;89.50;;;;;;5054351;28;20477;-79
2021/05/26 12:01:33;;;;;;;0.80;0.80;;;12.00;89.60;;;;;;5053888;28;20070;-76
2021/05/26 12:04:01;;;;;;;1.23;1.20;;;12.00;89.60;;;;;;5044008;28;20017;-76
2021/05/26 12:06:27;;;;;;;0.90;0.90;;;12.00;89.50;;;;;;5054446;28;20064;-75
2021/05/26 12:08:53;;;;;;;0.82;0.82;;;12.00;89.60;;;;;;5054312;28;20057;-76
2021/05/26 12:11:22;;;;;;;0.80;0.80;;;12.10;90.00;;;;;;5035910;28;20025;-76
2021/05/26 12:13:48;;;;;;;1.17;1.08;;;12.40;89.40;;;;;;5054336;28;20032;-76
2021/05/26 12:16:17;;;;;;;1.02;0.93;;;12.50;89.20;;;;;;5054313;28;20104;-76
2021/05/26 12:18:58;;;;;;;0.80;0.80;;;12.70;89.40;;;;;;5040673;28;20028;-77
2021/05/26 12:21:30;;;;;;;1.48;1.02;;;13.30;89.30;;;;;;5054041;28;20303;-79
2021/05/26 12:24:01;;;;;;;1.60;1.50;;;14.30;88.00;;;;;;5027296;28;20040;-76
2021/05/26 12:26:32;;;;;;;1.88;1.77;;;15.10;87.20;;;;;;5048422;28;20409;-76
2021/05/26 12:29:02;;;;;;;1.10;1.10;;;15.70;85.50;;;;;;5050076;28;20021;-77
2021/05/26 12:31:30;;;;;;;2.53;1.50;;;15.50;85.50;;;;;;5041029;28;20053;-77
2021/05/26 12:33:57;;;;;;;2.03;1.55;;;15.20;86.10;;;;;;5053950;28;20440;-77
2021/05/26 12:36:26;;;;;;;1.48;1.38;;;14.80;87.00;;;;;;5053747;28;20029;-75
2021/05/26 12:39:04;;;;;;;1.50;1.40;;;15.00;87.70;;;;;;5053856;28;20025;-74
2021/05/26 12:41:32;;;;;;;1.58;1.35;;;15.50;86.60;;;;;;5051544;28;20025;-75
2021/05/26 12:44:08;;;;;;;1.33;1.23;;;15.60;85.60;;;;;;5048493;28;20025;-76
2021/05/26 12:46:39;;;;;;;1.77;1.17;;;15.10;86.20;;;;;;5044416;28;20041;-74
2021/05/26 12:49:06;;;;;;;1.30;1.20;;;15.00;87.20;;;;;;5042664;28;20040;-75
2021/05/26 12:51:48;;;;;;;0.90;0.90;;;15.20;86.90;;;;;;5053371;28;20029;-75